sensor_id;sensor_type;location;lat;lon;timestamp;P1;durP1;ratioP1;P2;durP2;ratioP2
8978;SDS011;4524;51.364;5.448;2022-12-18T00:01:57;45.10;;;23.77;;
8978;SDS011;4524;51.364;5.448;2022-12-18T00:04:26;50.23;;;25.50;;
8978;SDS011;4524;51.364;5.448;2022-12-18T00:06:55;42.85;;;23.88;;
8978;SDS011;4524;51.364;5.448;2022-12-18T00:09:23;44.72;;;23.67;;
8978;SDS011;4524;51.364;5.448;2022-12-18T00:12:05;40.55;;;22.48;;
8978;SDS011;4524;51.364;5.448;2022-12-18T00:14:41;41.70;;;22.58;;
8978;SDS011;4524;51.364;5.448;2022-12-18T00:17:10;41.60;;;23.67;;
8978;SDS011;4524;51.364;5.448;2022-12-18T00:19:38;43.58;;;22.98;;
8978;SDS011;4524;51.364;5.448;2022-12-18T00:22:06;40.45;;;22.42;;
8978;SDS011;4524;51.364;5.448;2022-12-18T00:24:34;39.15;;;21.42;;
8978;SDS011;4524;51.364;5.448;2022-12-18T00:27:02;46.08;;;23.88;;
8978;SDS011;4524;51.364;5.448;2022-12-18T00:29:30;40.17;;;22.70;;
8978;SDS011;4524;51.364;5.448;2022-12-18T00:31:58;42.28;;;23.58;;
8978;SDS011;4524;51.364;5.448;2022-12-18T00:34:28;41.33;;;22.02;;
8978;SDS011;4524;51.364;5.448;2022-12-18T00:36:56;40.05;;;22.08;;
8978;SDS011;4524;51.364;5.448;2022-12-18T00:39:24;43.35;;;22.33;;
8978;SDS011;4524;51.364;5.448;2022-12-18T00:41:52;44.83;;;23.05;;
8978;SDS011;4524;51.364;5.448;2022-12-18T00:44:38;40.30;;;21.92;;
8978;SDS011;4524;51.364;5.448;2022-12-18T00:47:06;39.30;;;22.02;;
8978;SDS011;4524;51.364;5.448;2022-12-18T00:49:36;40.60;;;22.50;;
8978;SDS011;4524;51.364;5.448;2022-12-18T00:52:04;37.90;;;21.40;;
8978;SDS011;4524;51.364;5.448;2022-12-18T00:54:32;39.13;;;21.73;;
8978;SDS011;4524;51.364;5.448;2022-12-18T00:57:00;40.30;;;21.95;;
8978;SDS011;4524;51.364;5.448;2022-12-18T00:59:28;40.88;;;20.75;;
8978;SDS011;4524;51.364;5.448;2022-12-18T01:01:57;40.33;;;22.95;;
8978;SDS011;4524;51.364;5.448;2022-12-18T01:04:25;41.83;;;21.80;;
8978;SDS011;4524;51.364;5.448;2022-12-18T01:06:54;41.05;;;22.33;;
8978;SDS011;4524;51.364;5.448;2022-12-18T01:09:22;43.72;;;23.20;;
8978;SDS011;4524;51.364;5.448;2022-12-18T01:11:51;43.58;;;22.58;;
8978;SDS011;4524;51.364;5.448;2022-12-18T01:14:19;37.30;;;21.58;;
8978;SDS011;4524;51.364;5.448;2022-12-18T01:16:47;41.05;;;22.63;;
8978;SDS011;4524;51.364;5.448;2022-12-18T01:19:15;39.90;;;21.75;;
8978;SDS011;4524;51.364;5.448;2022-12-18T01:21:45;40.30;;;21.42;;
8978;SDS011;4524;51.364;5.448;2022-12-18T01:24:14;38.00;;;21.42;;
8978;SDS011;4524;51.364;5.448;2022-12-18T01:26:42;42.42;;;21.50;;
8978;SDS011;4524;51.364;5.448;2022-12-18T01:29:13;41.60;;;22.98;;
8978;SDS011;4524;51.364;5.448;2022-12-18T01:31:41;41.45;;;22.02;;
8978;SDS011;4524;51.364;5.448;2022-12-18T01:34:09;36.53;;;20.77;;
8978;SDS011;4524;51.364;5.448;2022-12-18T01:36:37;40.03;;;21.92;;
8978;SDS011;4524;51.364;5.448;2022-12-18T01:39:07;35.80;;;21.17;;
8978;SDS011;4524;51.364;5.448;2022-12-18T01:41:42;40.88;;;21.88;;
8978;SDS011;4524;51.364;5.448;2022-12-18T01:47:24;35.33;;;20.02;;
8978;SDS011;4524;51.364;5.448;2022-12-18T01:49:54;38.53;;;21.13;;
8978;SDS011;4524;51.364;5.448;2022-12-18T01:52:24;44.95;;;22.60;;
8978;SDS011;4524;51.364;5.448;2022-12-18T01:54:56;39.40;;;20.92;;
8978;SDS011;4524;51.364;5.448;2022-12-18T01:57:26;34.55;;;20.23;;
8978;SDS011;4524;51.364;5.448;2022-12-18T01:59:55;38.28;;;21.63;;
8978;SDS011;4524;51.364;5.448;2022-12-18T02:02:38;38.00;;;19.80;;
8978;SDS011;4524;51.364;5.448;2022-12-18T02:05:08;36.45;;;19.25;;
8978;SDS011;4524;51.364;5.448;2022-12-18T02:07:41;35.88;;;20.08;;
8978;SDS011;4524;51.364;5.448;2022-12-18T02:10:19;34.65;;;19.52;;
8978;SDS011;4524;51.364;5.448;2022-12-18T02:12:55;38.10;;;21.10;;
8978;SDS011;4524;51.364;5.448;2022-12-18T02:15:31;32.95;;;19.00;;
8978;SDS011;4524;51.364;5.448;2022-12-18T02:18:07;38.40;;;19.02;;
8978;SDS011;4524;51.364;5.448;2022-12-18T02:20:40;34.47;;;19.38;;
8978;SDS011;4524;51.364;5.448;2022-12-18T02:23:19;35.70;;;18.80;;
8978;SDS011;4524;51.364;5.448;2022-12-18T02:26:06;33.28;;;19.52;;
8978;SDS011;4524;51.364;5.448;2022-12-18T02:28:43;32.92;;;19.23;;
8978;SDS011;4524;51.364;5.448;2022-12-18T02:31:14;36.53;;;19.88;;
8978;SDS011;4524;51.364;5.448;2022-12-18T02:33:45;36.92;;;19.70;;
8978;SDS011;4524;51.364;5.448;2022-12-18T02:36:15;33.50;;;18.85;;
8978;SDS011;4524;51.364;5.448;2022-12-18T02:38:46;30.35;;;18.83;;
8978;SDS011;4524;51.364;5.448;2022-12-18T02:41:17;33.53;;;19.73;;
8978;SDS011;4524;51.364;5.448;2022-12-18T02:43:47;34.25;;;18.83;;
8978;SDS011;4524;51.364;5.448;2022-12-18T02:46:31;33.30;;;18.17;;
8978;SDS011;4524;51.364;5.448;2022-12-18T02:49:12;35.03;;;17.95;;
8978;SDS011;4524;51.364;5.448;2022-12-18T02:51:52;32.30;;;18.08;;
8978;SDS011;4524;51.364;5.448;2022-12-18T02:54:35;30.48;;;18.70;;
8978;SDS011;4524;51.364;5.448;2022-12-18T02:57:16;33.55;;;19.05;;
8978;SDS011;4524;51.364;5.448;2022-12-18T02:59:54;30.77;;;17.98;;
8978;SDS011;4524;51.364;5.448;2022-12-18T03:02:28;31.42;;;18.42;;
8978;SDS011;4524;51.364;5.448;2022-12-18T03:05:04;29.83;;;17.75;;
8978;SDS011;4524;51.364;5.448;2022-12-18T03:07:41;32.83;;;18.60;;
8978;SDS011;4524;51.364;5.448;2022-12-18T03:10:14;29.08;;;17.70;;
8978;SDS011;4524;51.364;5.448;2022-12-18T03:12:51;30.50;;;17.42;;
8978;SDS011;4524;51.364;5.448;2022-12-18T03:15:22;32.20;;;18.67;;
8978;SDS011;4524;51.364;5.448;2022-12-18T03:18:04;33.15;;;17.73;;
8978;SDS011;4524;51.364;5.448;2022-12-18T03:20:38;33.67;;;17.35;;
8978;SDS011;4524;51.364;5.448;2022-12-18T03:23:12;29.08;;;18.42;;
8978;SDS011;4524;51.364;5.448;2022-12-18T03:25:46;28.60;;;17.60;;
8978;SDS011;4524;51.364;5.448;2022-12-18T03:28:19;29.77;;;17.73;;
8978;SDS011;4524;51.364;5.448;2022-12-18T03:30:57;32.17;;;17.65;;
8978;SDS011;4524;51.364;5.448;2022-12-18T03:33:29;32.05;;;18.33;;
8978;SDS011;4524;51.364;5.448;2022-12-18T03:36:02;33.35;;;18.08;;
8978;SDS011;4524;51.364;5.448;2022-12-18T03:38:32;27.45;;;16.20;;
8978;SDS011;4524;51.364;5.448;2022-12-18T03:41:01;32.72;;;17.67;;
8978;SDS011;4524;51.364;5.448;2022-12-18T03:43:50;29.95;;;16.65;;
8978;SDS011;4524;51.364;5.448;2022-12-18T03:46:26;31.40;;;17.80;;
8978;SDS011;4524;51.364;5.448;2022-12-18T03:48:59;31.20;;;16.77;;
8978;SDS011;4524;51.364;5.448;2022-12-18T03:51:34;31.23;;;17.10;;
8978;SDS011;4524;51.364;5.448;2022-12-18T03:54:06;26.88;;;16.73;;
8978;SDS011;4524;51.364;5.448;2022-12-18T03:56:42;29.33;;;17.33;;
8978;SDS011;4524;51.364;5.448;2022-12-18T03:59:15;34.72;;;17.25;;
8978;SDS011;4524;51.364;5.448;2022-12-18T04:01:45;32.90;;;16.65;;
8978;SDS011;4524;51.364;5.448;2022-12-18T04:04:16;29.95;;;17.30;;
8978;SDS011;4524;51.364;5.448;2022-12-18T04:06:46;26.67;;;16.00;;
8978;SDS011;4524;51.364;5.448;2022-12-18T04:09:18;29.67;;;15.93;;
8978;SDS011;4524;51.364;5.448;2022-12-18T04:11:48;30.55;;;17.27;;
8978;SDS011;4524;51.364;5.448;2022-12-18T04:14:17;30.30;;;16.83;;
8978;SDS011;4524;51.364;5.448;2022-12-18T04:16:49;26.33;;;16.10;;
8978;SDS011;4524;51.364;5.448;2022-12-18T04:19:22;26.67;;;15.73;;
8978;SDS011;4524;51.364;5.448;2022-12-18T04:21:51;23.55;;;14.90;;
8978;SDS011;4524;51.364;5.448;2022-12-18T04:24:20;26.58;;;15.82;;
8978;SDS011;4524;51.364;5.448;2022-12-18T04:27:10;26.25;;;14.88;;
8978;SDS011;4524;51.364;5.448;2022-12-18T04:29:43;26.92;;;15.38;;
8978;SDS011;4524;51.364;5.448;2022-12-18T04:32:13;28.75;;;14.65;;
8978;SDS011;4524;51.364;5.448;2022-12-18T04:34:43;26.27;;;15.60;;
8978;SDS011;4524;51.364;5.448;2022-12-18T04:37:11;26.85;;;15.38;;
8978;SDS011;4524;51.364;5.448;2022-12-18T04:39:39;26.00;;;16.15;;
8978;SDS011;4524;51.364;5.448;2022-12-18T04:42:13;27.42;;;17.73;;
8978;SDS011;4524;51.364;5.448;2022-12-18T04:44:41;27.92;;;18.35;;
8978;SDS011;4524;51.364;5.448;2022-12-18T04:47:11;30.42;;;19.85;;
8978;SDS011;4524;51.364;5.448;2022-12-18T04:49:39;30.60;;;19.05;;
8978;SDS011;4524;51.364;5.448;2022-12-18T04:52:07;31.38;;;19.13;;
8978;SDS011;4524;51.364;5.448;2022-12-18T04:54:34;33.67;;;19.80;;
8978;SDS011;4524;51.364;5.448;2022-12-18T04:57:03;31.52;;;18.20;;
8978;SDS011;4524;51.364;5.448;2022-12-18T04:59:30;28.90;;;17.88;;
8978;SDS011;4524;51.364;5.448;2022-12-18T05:02:00;28.65;;;18.58;;
8978;SDS011;4524;51.364;5.448;2022-12-18T05:04:28;25.17;;;15.95;;
8978;SDS011;4524;51.364;5.448;2022-12-18T05:06:56;27.60;;;15.77;;
8978;SDS011;4524;51.364;5.448;2022-12-18T05:09:24;24.48;;;14.68;;
8978;SDS011;4524;51.364;5.448;2022-12-18T05:11:52;28.65;;;15.95;;
8978;SDS011;4524;51.364;5.448;2022-12-18T05:14:20;25.77;;;15.55;;
8978;SDS011;4524;51.364;5.448;2022-12-18T05:16:48;25.70;;;15.52;;
8978;SDS011;4524;51.364;5.448;2022-12-18T05:19:17;25.02;;;14.68;;
8978;SDS011;4524;51.364;5.448;2022-12-18T05:21:45;27.92;;;15.18;;
8978;SDS011;4524;51.364;5.448;2022-12-18T05:24:13;26.98;;;15.52;;
8978;SDS011;4524;51.364;5.448;2022-12-18T05:26:41;23.75;;;15.13;;
8978;SDS011;4524;51.364;5.448;2022-12-18T05:29:09;24.58;;;14.85;;
8978;SDS011;4524;51.364;5.448;2022-12-18T05:31:39;28.38;;;14.43;;
8978;SDS011;4524;51.364;5.448;2022-12-18T05:34:08;22.20;;;14.85;;
8978;SDS011;4524;51.364;5.448;2022-12-18T05:36:39;28.38;;;15.80;;
8978;SDS011;4524;51.364;5.448;2022-12-18T05:39:07;24.30;;;15.00;;
8978;SDS011;4524;51.364;5.448;2022-12-18T05:41:35;26.25;;;15.10;;
8978;SDS011;4524;51.364;5.448;2022-12-18T05:44:03;24.92;;;14.63;;
8978;SDS011;4524;51.364;5.448;2022-12-18T05:46:31;26.30;;;15.07;;
8978;SDS011;4524;51.364;5.448;2022-12-18T05:49:00;23.33;;;14.68;;
8978;SDS011;4524;51.364;5.448;2022-12-18T05:51:28;24.70;;;15.05;;
8978;SDS011;4524;51.364;5.448;2022-12-18T05:53:57;25.40;;;14.13;;
8978;SDS011;4524;51.364;5.448;2022-12-18T05:56:25;28.55;;;14.90;;
8978;SDS011;4524;51.364;5.448;2022-12-18T05:58:53;23.00;;;13.60;;
8978;SDS011;4524;51.364;5.448;2022-12-18T06:01:23;21.75;;;13.13;;
8978;SDS011;4524;51.364;5.448;2022-12-18T06:03:53;26.23;;;15.57;;
8978;SDS011;4524;51.364;5.448;2022-12-18T06:06:22;23.50;;;14.30;;
8978;SDS011;4524;51.364;5.448;2022-12-18T06:08:51;20.65;;;13.48;;
8978;SDS011;4524;51.364;5.448;2022-12-18T06:11:22;25.10;;;15.20;;
8978;SDS011;4524;51.364;5.448;2022-12-18T06:13:53;22.98;;;14.13;;
8978;SDS011;4524;51.364;5.448;2022-12-18T06:16:24;23.50;;;13.30;;
8978;SDS011;4524;51.364;5.448;2022-12-18T06:18:53;25.10;;;14.35;;
8978;SDS011;4524;51.364;5.448;2022-12-18T06:21:23;22.75;;;14.18;;
8978;SDS011;4524;51.364;5.448;2022-12-18T06:23:51;26.27;;;15.20;;
8978;SDS011;4524;51.364;5.448;2022-12-18T06:26:19;23.25;;;13.63;;
8978;SDS011;4524;51.364;5.448;2022-12-18T06:28:54;24.45;;;13.98;;
8978;SDS011;4524;51.364;5.448;2022-12-18T06:31:23;25.25;;;14.38;;
8978;SDS011;4524;51.364;5.448;2022-12-18T06:33:51;22.15;;;13.88;;
8978;SDS011;4524;51.364;5.448;2022-12-18T06:36:19;24.83;;;14.38;;
8978;SDS011;4524;51.364;5.448;2022-12-18T06:38:47;24.55;;;14.07;;
8978;SDS011;4524;51.364;5.448;2022-12-18T06:41:16;23.60;;;14.43;;
8978;SDS011;4524;51.364;5.448;2022-12-18T06:43:46;25.33;;;14.82;;
8978;SDS011;4524;51.364;5.448;2022-12-18T06:46:16;24.23;;;14.43;;
8978;SDS011;4524;51.364;5.448;2022-12-18T06:48:46;30.77;;;15.38;;
8978;SDS011;4524;51.364;5.448;2022-12-18T06:51:16;24.13;;;14.23;;
8978;SDS011;4524;51.364;5.448;2022-12-18T06:53:45;28.58;;;14.93;;
8978;SDS011;4524;51.364;5.448;2022-12-18T06:56:13;22.27;;;14.35;;
8978;SDS011;4524;51.364;5.448;2022-12-18T06:58:41;21.27;;;13.88;;
8978;SDS011;4524;51.364;5.448;2022-12-18T07:01:10;20.88;;;14.18;;
8978;SDS011;4524;51.364;5.448;2022-12-18T07:03:40;25.15;;;13.40;;
8978;SDS011;4524;51.364;5.448;2022-12-18T07:06:13;26.17;;;14.82;;
8978;SDS011;4524;51.364;5.448;2022-12-18T07:08:42;23.23;;;13.90;;
8978;SDS011;4524;51.364;5.448;2022-12-18T07:11:10;24.92;;;12.85;;
8978;SDS011;4524;51.364;5.448;2022-12-18T07:13:39;22.92;;;14.68;;
8978;SDS011;4524;51.364;5.448;2022-12-18T07:16:08;27.58;;;13.95;;
8978;SDS011;4524;51.364;5.448;2022-12-18T07:18:45;25.42;;;14.50;;
8978;SDS011;4524;51.364;5.448;2022-12-18T07:21:31;23.38;;;13.68;;
8978;SDS011;4524;51.364;5.448;2022-12-18T07:23:59;22.77;;;13.85;;
8978;SDS011;4524;51.364;5.448;2022-12-18T07:26:27;24.60;;;14.73;;
8978;SDS011;4524;51.364;5.448;2022-12-18T07:28:57;23.90;;;13.73;;
8978;SDS011;4524;51.364;5.448;2022-12-18T07:31:25;22.17;;;13.82;;
8978;SDS011;4524;51.364;5.448;2022-12-18T07:33:55;24.48;;;14.18;;
8978;SDS011;4524;51.364;5.448;2022-12-18T07:36:24;23.90;;;13.45;;
8978;SDS011;4524;51.364;5.448;2022-12-18T07:38:52;23.92;;;13.98;;
8978;SDS011;4524;51.364;5.448;2022-12-18T07:41:20;22.05;;;14.13;;
8978;SDS011;4524;51.364;5.448;2022-12-18T07:43:48;25.48;;;14.85;;
8978;SDS011;4524;51.364;5.448;2022-12-18T07:46:17;25.80;;;15.05;;
8978;SDS011;4524;51.364;5.448;2022-12-18T07:48:45;21.58;;;14.63;;
8978;SDS011;4524;51.364;5.448;2022-12-18T07:51:17;23.83;;;14.48;;
8978;SDS011;4524;51.364;5.448;2022-12-18T07:53:45;25.05;;;13.90;;
8978;SDS011;4524;51.364;5.448;2022-12-18T07:56:17;25.17;;;13.70;;
8978;SDS011;4524;51.364;5.448;2022-12-18T07:58:56;21.45;;;13.93;;
8978;SDS011;4524;51.364;5.448;2022-12-18T08:01:25;22.52;;;14.30;;
8978;SDS011;4524;51.364;5.448;2022-12-18T08:03:53;27.08;;;14.88;;
8978;SDS011;4524;51.364;5.448;2022-12-18T08:06:22;27.33;;;14.73;;
8978;SDS011;4524;51.364;5.448;2022-12-18T08:08:51;23.30;;;15.23;;
8978;SDS011;4524;51.364;5.448;2022-12-18T08:11:20;24.00;;;14.73;;
8978;SDS011;4524;51.364;5.448;2022-12-18T08:13:49;27.70;;;14.50;;
8978;SDS011;4524;51.364;5.448;2022-12-18T08:16:17;25.27;;;14.32;;
8978;SDS011;4524;51.364;5.448;2022-12-18T08:18:46;24.52;;;15.00;;
8978;SDS011;4524;51.364;5.448;2022-12-18T08:21:16;24.95;;;14.90;;
8978;SDS011;4524;51.364;5.448;2022-12-18T08:23:48;29.45;;;13.73;;
8978;SDS011;4524;51.364;5.448;2022-12-18T08:26:18;24.05;;;13.82;;
8978;SDS011;4524;51.364;5.448;2022-12-18T08:28:47;23.92;;;13.90;;
8978;SDS011;4524;51.364;5.448;2022-12-18T08:31:16;20.77;;;14.27;;
8978;SDS011;4524;51.364;5.448;2022-12-18T08:33:45;21.33;;;13.75;;
8978;SDS011;4524;51.364;5.448;2022-12-18T08:36:16;24.58;;;15.45;;
8978;SDS011;4524;51.364;5.448;2022-12-18T08:38:44;23.55;;;14.45;;
8978;SDS011;4524;51.364;5.448;2022-12-18T08:41:14;25.30;;;14.40;;
8978;SDS011;4524;51.364;5.448;2022-12-18T08:43:43;25.77;;;14.80;;
8978;SDS011;4524;51.364;5.448;2022-12-18T08:46:31;23.70;;;14.80;;
8978;SDS011;4524;51.364;5.448;2022-12-18T08:49:01;23.73;;;14.93;;
8978;SDS011;4524;51.364;5.448;2022-12-18T08:51:30;25.48;;;14.90;;
8978;SDS011;4524;51.364;5.448;2022-12-18T08:53:58;25.63;;;15.75;;
8978;SDS011;4524;51.364;5.448;2022-12-18T08:56:28;24.67;;;15.38;;
8978;SDS011;4524;51.364;5.448;2022-12-18T08:58:57;24.08;;;14.38;;
8978;SDS011;4524;51.364;5.448;2022-12-18T09:01:25;24.52;;;15.55;;
8978;SDS011;4524;51.364;5.448;2022-12-18T09:03:53;22.67;;;14.65;;
8978;SDS011;4524;51.364;5.448;2022-12-18T09:06:21;24.58;;;15.93;;
8978;SDS011;4524;51.364;5.448;2022-12-18T09:08:50;24.02;;;15.55;;
8978;SDS011;4524;51.364;5.448;2022-12-18T09:11:19;23.70;;;15.02;;
8978;SDS011;4524;51.364;5.448;2022-12-18T09:13:50;24.95;;;15.00;;
8978;SDS011;4524;51.364;5.448;2022-12-18T09:16:20;23.77;;;15.32;;
8978;SDS011;4524;51.364;5.448;2022-12-18T09:18:57;25.25;;;15.52;;
8978;SDS011;4524;51.364;5.448;2022-12-18T09:21:27;24.73;;;14.35;;
8978;SDS011;4524;51.364;5.448;2022-12-18T09:23:58;28.17;;;15.90;;
8978;SDS011;4524;51.364;5.448;2022-12-18T09:26:26;26.30;;;16.02;;
8978;SDS011;4524;51.364;5.448;2022-12-18T09:28:56;25.50;;;15.30;;
8978;SDS011;4524;51.364;5.448;2022-12-18T09:31:24;22.67;;;15.27;;
8978;SDS011;4524;51.364;5.448;2022-12-18T09:33:52;23.48;;;14.85;;
8978;SDS011;4524;51.364;5.448;2022-12-18T09:36:22;24.83;;;15.18;;
8978;SDS011;4524;51.364;5.448;2022-12-18T09:38:50;25.98;;;15.60;;
8978;SDS011;4524;51.364;5.448;2022-12-18T09:41:25;22.45;;;14.88;;
8978;SDS011;4524;51.364;5.448;2022-12-18T09:44:11;26.90;;;16.02;;
8978;SDS011;4524;51.364;5.448;2022-12-18T09:46:47;25.73;;;15.70;;
8978;SDS011;4524;51.364;5.448;2022-12-18T09:49:23;25.77;;;15.67;;
8978;SDS011;4524;51.364;5.448;2022-12-18T09:51:54;25.90;;;16.40;;
8978;SDS011;4524;51.364;5.448;2022-12-18T09:54:33;22.33;;;15.27;;
8978;SDS011;4524;51.364;5.448;2022-12-18T09:57:05;29.92;;;16.45;;
8978;SDS011;4524;51.364;5.448;2022-12-18T09:59:35;24.70;;;15.03;;
8978;SDS011;4524;51.364;5.448;2022-12-18T10:02:13;26.60;;;15.47;;
8978;SDS011;4524;51.364;5.448;2022-12-18T10:04:43;28.13;;;15.97;;
8978;SDS011;4524;51.364;5.448;2022-12-18T10:07:15;23.70;;;15.80;;
8978;SDS011;4524;51.364;5.448;2022-12-18T10:09:51;26.00;;;15.70;;
8978;SDS011;4524;51.364;5.448;2022-12-18T10:12:25;24.17;;;15.30;;
8978;SDS011;4524;51.364;5.448;2022-12-18T10:15:01;28.17;;;17.67;;
8978;SDS011;4524;51.364;5.448;2022-12-18T10:17:36;25.37;;;16.13;;
8978;SDS011;4524;51.364;5.448;2022-12-18T10:20:13;27.23;;;16.10;;
8978;SDS011;4524;51.364;5.448;2022-12-18T10:22:48;27.77;;;17.20;;
8978;SDS011;4524;51.364;5.448;2022-12-18T10:25:21;23.50;;;16.13;;
8978;SDS011;4524;51.364;5.448;2022-12-18T10:27:53;24.17;;;16.00;;
8978;SDS011;4524;51.364;5.448;2022-12-18T10:30:26;25.90;;;16.40;;
8978;SDS011;4524;51.364;5.448;2022-12-18T10:32:54;24.50;;;16.07;;
8978;SDS011;4524;51.364;5.448;2022-12-18T10:35:28;23.70;;;15.63;;
8978;SDS011;4524;51.364;5.448;2022-12-18T10:38:00;26.40;;;15.87;;
8978;SDS011;4524;51.364;5.448;2022-12-18T10:40:30;25.00;;;16.27;;
8978;SDS011;4524;51.364;5.448;2022-12-18T10:43:05;26.47;;;16.33;;
8978;SDS011;4524;51.364;5.448;2022-12-18T10:45:39;25.13;;;15.73;;
8978;SDS011;4524;51.364;5.448;2022-12-18T10:48:17;25.60;;;16.47;;
8978;SDS011;4524;51.364;5.448;2022-12-18T10:50:47;27.67;;;17.03;;
8978;SDS011;4524;51.364;5.448;2022-12-18T10:53:36;20.73;;;14.83;;
8978;SDS011;4524;51.364;5.448;2022-12-18T10:56:05;22.60;;;15.70;;
8978;SDS011;4524;51.364;5.448;2022-12-18T10:58:34;23.33;;;16.33;;
8978;SDS011;4524;51.364;5.448;2022-12-18T11:01:06;24.70;;;16.77;;
8978;SDS011;4524;51.364;5.448;2022-12-18T11:03:38;20.70;;;15.23;;
8978;SDS011;4524;51.364;5.448;2022-12-18T11:06:08;26.07;;;16.33;;
8978;SDS011;4524;51.364;5.448;2022-12-18T11:08:38;25.63;;;16.53;;
8978;SDS011;4524;51.364;5.448;2022-12-18T11:11:07;24.43;;;16.33;;
8978;SDS011;4524;51.364;5.448;2022-12-18T11:13:50;23.00;;;15.17;;
8978;SDS011;4524;51.364;5.448;2022-12-18T11:16:27;26.87;;;17.10;;
8978;SDS011;4524;51.364;5.448;2022-12-18T11:19:07;24.60;;;15.80;;
8978;SDS011;4524;51.364;5.448;2022-12-18T11:21:52;24.13;;;15.57;;
8978;SDS011;4524;51.364;5.448;2022-12-18T11:24:22;25.43;;;16.03;;
8978;SDS011;4524;51.364;5.448;2022-12-18T11:26:55;24.17;;;15.83;;
8978;SDS011;4524;51.364;5.448;2022-12-18T11:29:28;25.27;;;15.80;;
8978;SDS011;4524;51.364;5.448;2022-12-18T11:32:19;23.87;;;15.67;;
8978;SDS011;4524;51.364;5.448;2022-12-18T11:34:57;26.10;;;16.07;;
8978;SDS011;4524;51.364;5.448;2022-12-18T11:37:31;23.50;;;15.57;;
8978;SDS011;4524;51.364;5.448;2022-12-18T11:40:01;23.80;;;15.20;;
8978;SDS011;4524;51.364;5.448;2022-12-18T11:42:35;23.40;;;15.23;;
8978;SDS011;4524;51.364;5.448;2022-12-18T11:45:18;26.70;;;16.33;;
8978;SDS011;4524;51.364;5.448;2022-12-18T11:47:54;23.27;;;15.33;;
8978;SDS011;4524;51.364;5.448;2022-12-18T11:50:26;25.90;;;16.67;;
8978;SDS011;4524;51.364;5.448;2022-12-18T11:52:59;26.77;;;16.03;;
8978;SDS011;4524;51.364;5.448;2022-12-18T11:55:35;24.87;;;15.73;;
8978;SDS011;4524;51.364;5.448;2022-12-18T11:58:11;22.73;;;15.57;;
8978;SDS011;4524;51.364;5.448;2022-12-18T12:00:46;22.57;;;15.13;;
8978;SDS011;4524;51.364;5.448;2022-12-18T12:03:27;24.33;;;16.10;;
8978;SDS011;4524;51.364;5.448;2022-12-18T12:06:19;26.00;;;16.20;;
8978;SDS011;4524;51.364;5.448;2022-12-18T12:08:54;27.17;;;16.73;;
8978;SDS011;4524;51.364;5.448;2022-12-18T12:11:35;24.33;;;15.80;;
8978;SDS011;4524;51.364;5.448;2022-12-18T12:14:15;26.60;;;17.20;;
8978;SDS011;4524;51.364;5.448;2022-12-18T12:17:03;23.30;;;14.60;;
8978;SDS011;4524;51.364;5.448;2022-12-18T12:19:44;23.80;;;15.87;;
8978;SDS011;4524;51.364;5.448;2022-12-18T12:22:20;24.13;;;15.50;;
8978;SDS011;4524;51.364;5.448;2022-12-18T12:25:02;25.20;;;15.93;;
8978;SDS011;4524;51.364;5.448;2022-12-18T12:27:47;23.97;;;15.47;;
8978;SDS011;4524;51.364;5.448;2022-12-18T12:30:22;24.40;;;16.33;;
8978;SDS011;4524;51.364;5.448;2022-12-18T12:33:05;22.37;;;15.53;;
8978;SDS011;4524;51.364;5.448;2022-12-18T12:35:51;24.00;;;15.37;;
8978;SDS011;4524;51.364;5.448;2022-12-18T12:38:27;23.60;;;16.17;;
8978;SDS011;4524;51.364;5.448;2022-12-18T12:40:59;27.13;;;16.03;;
8978;SDS011;4524;51.364;5.448;2022-12-18T12:43:35;23.23;;;15.53;;
8978;SDS011;4524;51.364;5.448;2022-12-18T12:46:15;22.07;;;15.60;;
8978;SDS011;4524;51.364;5.448;2022-12-18T12:48:47;24.37;;;15.63;;
8978;SDS011;4524;51.364;5.448;2022-12-18T12:51:22;23.67;;;15.57;;
8978;SDS011;4524;51.364;5.448;2022-12-18T12:53:53;23.50;;;16.10;;
8978;SDS011;4524;51.364;5.448;2022-12-18T12:56:24;21.53;;;15.07;;
8978;SDS011;4524;51.364;5.448;2022-12-18T12:58:57;23.47;;;16.37;;
8978;SDS011;4524;51.364;5.448;2022-12-18T13:01:32;22.90;;;16.47;;
8978;SDS011;4524;51.364;5.448;2022-12-18T13:04:08;26.27;;;15.87;;
8978;SDS011;4524;51.364;5.448;2022-12-18T13:06:47;24.67;;;16.20;;
8978;SDS011;4524;51.364;5.448;2022-12-18T13:09:21;23.53;;;15.70;;
8978;SDS011;4524;51.364;5.448;2022-12-18T13:11:49;25.17;;;16.37;;
8978;SDS011;4524;51.364;5.448;2022-12-18T13:14:35;24.80;;;16.50;;
8978;SDS011;4524;51.364;5.448;2022-12-18T13:17:14;25.03;;;16.40;;
8978;SDS011;4524;51.364;5.448;2022-12-18T13:19:45;23.57;;;16.17;;
8978;SDS011;4524;51.364;5.448;2022-12-18T13:22:22;23.67;;;16.00;;
8978;SDS011;4524;51.364;5.448;2022-12-18T13:24:52;23.10;;;15.33;;
8978;SDS011;4524;51.364;5.448;2022-12-18T13:36:38;23.23;;;15.30;;
8978;SDS011;4524;51.364;5.448;2022-12-18T13:39:22;23.83;;;15.50;;
8978;SDS011;4524;51.364;5.448;2022-12-18T13:48:17;23.63;;;15.07;;
8978;SDS011;4524;51.364;5.448;2022-12-18T13:50:49;22.60;;;15.77;;
8978;SDS011;4524;51.364;5.448;2022-12-18T13:53:21;23.90;;;16.40;;
8978;SDS011;4524;51.364;5.448;2022-12-18T13:55:54;22.87;;;16.03;;
8978;SDS011;4524;51.364;5.448;2022-12-18T13:58:22;23.10;;;15.53;;
8978;SDS011;4524;51.364;5.448;2022-12-18T14:00:50;24.83;;;16.10;;
8978;SDS011;4524;51.364;5.448;2022-12-18T14:03:20;26.77;;;16.90;;
8978;SDS011;4524;51.364;5.448;2022-12-18T14:05:58;25.83;;;16.33;;
8978;SDS011;4524;51.364;5.448;2022-12-18T14:08:34;24.77;;;17.47;;
8978;SDS011;4524;51.364;5.448;2022-12-18T14:11:08;26.23;;;17.07;;
8978;SDS011;4524;51.364;5.448;2022-12-18T14:13:47;25.40;;;16.93;;
8978;SDS011;4524;51.364;5.448;2022-12-18T14:16:16;23.77;;;16.17;;
8978;SDS011;4524;51.364;5.448;2022-12-18T14:18:45;25.87;;;16.40;;
8978;SDS011;4524;51.364;5.448;2022-12-18T14:21:22;22.77;;;15.40;;
8978;SDS011;4524;51.364;5.448;2022-12-18T14:24:03;23.43;;;15.63;;
8978;SDS011;4524;51.364;5.448;2022-12-18T14:26:34;23.57;;;15.50;;
8978;SDS011;4524;51.364;5.448;2022-12-18T14:29:17;25.10;;;15.80;;
8978;SDS011;4524;51.364;5.448;2022-12-18T14:34:42;25.83;;;17.27;;
8978;SDS011;4524;51.364;5.448;2022-12-18T14:37:12;25.20;;;17.37;;
8978;SDS011;4524;51.364;5.448;2022-12-18T14:39:51;25.83;;;17.10;;
8978;SDS011;4524;51.364;5.448;2022-12-18T14:42:25;24.03;;;16.60;;
8978;SDS011;4524;51.364;5.448;2022-12-18T14:48:09;26.33;;;17.40;;
8978;SDS011;4524;51.364;5.448;2022-12-18T14:50:55;27.90;;;17.00;;
8978;SDS011;4524;51.364;5.448;2022-12-18T14:53:32;26.57;;;18.37;;
8978;SDS011;4524;51.364;5.448;2022-12-18T14:56:03;25.20;;;17.33;;
8978;SDS011;4524;51.364;5.448;2022-12-18T14:58:45;27.70;;;17.80;;
8978;SDS011;4524;51.364;5.448;2022-12-18T15:01:21;27.00;;;16.90;;
8978;SDS011;4524;51.364;5.448;2022-12-18T15:03:52;23.67;;;16.30;;
8978;SDS011;4524;51.364;5.448;2022-12-18T15:06:26;27.03;;;16.40;;
8978;SDS011;4524;51.364;5.448;2022-12-18T15:08:56;24.73;;;16.60;;
8978;SDS011;4524;51.364;5.448;2022-12-18T15:11:25;23.70;;;16.53;;
8978;SDS011;4524;51.364;5.448;2022-12-18T15:13:58;25.03;;;18.13;;
8978;SDS011;4524;51.364;5.448;2022-12-18T15:16:27;27.33;;;17.30;;
8978;SDS011;4524;51.364;5.448;2022-12-18T15:18:55;24.73;;;16.57;;
8978;SDS011;4524;51.364;5.448;2022-12-18T15:21:23;25.67;;;17.67;;
8978;SDS011;4524;51.364;5.448;2022-12-18T15:23:51;25.60;;;17.90;;
8978;SDS011;4524;51.364;5.448;2022-12-18T15:26:20;24.30;;;17.60;;
8978;SDS011;4524;51.364;5.448;2022-12-18T15:28:50;26.50;;;17.40;;
8978;SDS011;4524;51.364;5.448;2022-12-18T15:31:24;28.67;;;16.07;;
8978;SDS011;4524;51.364;5.448;2022-12-18T15:34:01;23.17;;;16.60;;
8978;SDS011;4524;51.364;5.448;2022-12-18T15:36:36;26.27;;;17.63;;
8978;SDS011;4524;51.364;5.448;2022-12-18T15:39:05;25.13;;;17.23;;
8978;SDS011;4524;51.364;5.448;2022-12-18T15:41:33;25.20;;;17.53;;
8978;SDS011;4524;51.364;5.448;2022-12-18T15:44:15;24.27;;;16.53;;